Time;durP1;ratioP1;P1;durP2;ratioP2;P2;SDS_P1;SDS_P2;PMS_P1;PMS_P2;Temp;Humidity;BMP_temperature;BMP_pressure;BME280_temperature;BME280_humidity;BME280_pressure;Samples;Min_cycle;Max_cycle;Signal;HPM_P1;HPM_P2
2023/11/15 00:02:06;;;;;;;6.18;1.50;;;12.50;75.70;;;;;;5062136;28;20032;-76
2023/11/15 00:04:32;;;;;;;8.02;1.67;;;12.40;75.50;;;;;;5092083;28;20036;-76
2023/11/15 00:06:58;;;;;;;6.88;1.63;;;12.50;75.80;;;;;;5055797;28;20035;-76
2023/11/15 00:09:24;;;;;;;6.90;1.63;;;12.40;75.60;;;;;;5061855;28;20419;-76
2023/11/15 00:11:51;;;;;;;7.05;1.52;;;12.40;75.60;;;;;;5058880;28;20060;-76
2023/11/15 00:14:17;;;;;;;4.97;1.63;;;12.40;75.70;;;;;;5065726;28;20024;-76
2023/11/15 00:16:42;;;;;;;6.50;1.60;;;12.40;75.70;;;;;;5058045;28;20118;-76
2023/11/15 00:19:08;;;;;;;6.75;2.00;;;12.40;75.70;;;;;;5058870;28;20479;-76
2023/11/15 00:21:35;;;;;;;6.90;1.50;;;12.40;75.70;;;;;;5058027;28;20496;-76
2023/11/15 00:24:01;;;;;;;8.07;1.60;;;12.40;75.70;;;;;;5058515;28;20090;-76
2023/11/15 00:26:29;;;;;;;7.22;1.60;;;12.30;75.50;;;;;;5057554;28;20579;-75
2023/11/15 00:28:55;;;;;;;8.40;2.08;;;12.30;75.50;;;;;;5058915;28;20021;-75
2023/11/15 00:31:22;;;;;;;8.10;1.90;;;12.30;75.60;;;;;;5040715;28;20048;-76
2023/11/15 00:33:48;;;;;;;8.77;2.65;;;12.30;75.60;;;;;;5060907;28;20047;-76
2023/11/15 00:36:14;;;;;;;7.90;2.17;;;12.30;75.70;;;;;;5039640;28;20553;-76
2023/11/15 00:38:40;;;;;;;5.05;1.80;;;12.30;75.70;;;;;;5056671;28;20044;-75
2023/11/15 00:41:08;;;;;;;5.55;1.95;;;12.30;75.70;;;;;;5055265;28;20089;-76
2023/11/15 00:43:34;;;;;;;5.30;1.60;;;12.30;75.70;;;;;;5051578;28;20425;-76
2023/11/15 00:46:00;;;;;;;7.95;2.25;;;12.20;75.60;;;;;;5057974;28;20036;-75
2023/11/15 00:48:26;;;;;;;10.68;1.92;;;12.20;75.60;;;;;;5052210;28;20028;-75
2023/11/15 00:50:52;;;;;;;7.50;2.35;;;12.20;75.60;;;;;;5091527;28;20047;-74
2023/11/15 00:53:18;;;;;;;8.68;2.30;;;12.20;75.70;;;;;;5061145;28;20028;-75
2023/11/15 00:55:44;;;;;;;8.32;1.50;;;12.10;75.50;;;;;;5058464;28;20036;-74
2023/11/15 00:58:10;;;;;;;6.30;2.20;;;12.10;75.50;;;;;;5043985;28;20064;-74
2023/11/15 01:00:44;;;;;;;8.95;2.65;;;12.10;75.60;;;;;;5060156;28;20040;-74
2023/11/15 01:03:25;;;;;;;8.75;3.03;;;12.10;75.60;;;;;;5065195;28;20063;-74
2023/11/15 01:05:55;;;;;;;9.25;1.60;;;12.10;75.60;;;;;;5059120;28;20037;-75
2023/11/15 01:08:23;;;;;;;5.55;1.80;;;12.10;75.60;;;;;;5060834;28;20033;-74
2023/11/15 01:10:51;;;;;;;7.50;1.83;;;12.00;75.50;;;;;;5058584;28;20355;-75
2023/11/15 01:13:17;;;;;;;5.25;1.58;;;12.00;75.50;;;;;;5058801;28;20184;-75
2023/11/15 01:15:43;;;;;;;8.27;2.28;;;12.00;75.50;;;;;;5057917;28;20457;-75
2023/11/15 01:18:09;;;;;;;7.88;1.65;;;12.00;75.50;;;;;;5090401;28;20488;-75
2023/11/15 01:20:36;;;;;;;7.28;1.80;;;12.00;75.50;;;;;;5061408;28;20094;-74
2023/11/15 01:23:05;;;;;;;6.30;2.55;;;12.00;75.50;;;;;;5061941;28;20216;-74
2023/11/15 01:25:32;;;;;;;5.68;1.83;;;12.00;75.60;;;;;;5060776;28;20267;-75
2023/11/15 01:27:59;;;;;;;7.70;1.73;;;11.90;75.40;;;;;;5063330;28;20373;-74
2023/11/15 01:30:26;;;;;;;11.98;2.17;;;11.90;75.40;;;;;;5051860;28;20120;-75
2023/11/15 01:32:52;;;;;;;7.28;1.48;;;11.90;75.50;;;;;;5062569;28;20040;-75
2023/11/15 01:35:23;;;;;;;9.43;2.65;;;11.80;75.30;;;;;;5059873;28;20044;-75
2023/11/15 01:37:51;;;;;;;8.95;2.03;;;11.80;75.30;;;;;;5063210;28;20186;-74
2023/11/15 01:40:20;;;;;;;11.80;1.95;;;11.80;75.40;;;;;;5054000;28;20392;-75
2023/11/15 01:42:50;;;;;;;7.63;1.80;;;11.80;75.40;;;;;;5086881;27;20568;-75
2023/11/15 01:45:17;;;;;;;8.98;2.10;;;11.70;75.20;;;;;;5061124;28;20041;-75
2023/11/15 01:47:43;;;;;;;8.73;2.60;;;11.70;75.20;;;;;;5060373;28;20034;-75
2023/11/15 01:50:13;;;;;;;8.02;2.10;;;11.70;75.30;;;;;;5060026;28;20124;-75
2023/11/15 01:52:41;;;;;;;9.88;2.30;;;11.70;75.30;;;;;;5079351;28;20029;-75
2023/11/15 01:55:12;;;;;;;7.47;1.80;;;11.70;75.40;;;;;;5066164;28;20131;-74
2023/11/15 01:57:40;;;;;;;6.93;1.83;;;11.60;75.20;;;;;;5054945;28;20040;-74
2023/11/15 02:00:10;;;;;;;8.65;2.40;;;11.60;75.20;;;;;;5062897;28;20044;-74
2023/11/15 02:02:40;;;;;;;;;;;11.60;75.30;;;;;;5059814;28;20089;-74
2023/11/15 02:05:07;;;;;;;6.55;2.22;;;11.60;75.30;;;;;;5061409;28;19920;-74
2023/11/15 02:07:33;;;;;;;8.18;1.85;;;11.60;75.20;;;;;;5061184;28;20566;-74
2023/11/15 02:10:01;;;;;;;6.53;2.00;;;11.50;75.10;;;;;;5058519;28;20040;-75
2023/11/15 02:12:27;;;;;;;8.95;2.58;;;11.50;75.10;;;;;;5058401;28;20020;-75
2023/11/15 02:14:54;;;;;;;6.25;1.80;;;11.50;75.10;;;;;;5061095;28;20032;-74
2023/11/15 02:17:23;;;;;;;9.80;1.95;;;11.50;75.20;;;;;;5058190;28;20494;-75
2023/11/15 02:19:49;;;;;;;9.23;2.22;;;11.50;75.30;;;;;;5059739;28;20039;-75
2023/11/15 02:22:18;;;;;;;7.57;1.73;;;11.50;75.30;;;;;;5051389;28;20179;-77
2023/11/15 02:24:46;;;;;;;5.07;2.00;;;11.40;75.10;;;;;;5066807;28;20074;-76
2023/11/15 02:27:12;;;;;;;6.88;2.03;;;11.40;75.10;;;;;;5060962;28;20056;-76
2023/11/15 02:29:39;;;;;;;9.88;2.60;;;11.40;75.10;;;;;;5063598;28;20059;-76
2023/11/15 02:32:06;;;;;;;6.13;2.30;;;11.40;75.20;;;;;;5059384;28;20029;-76
2023/11/15 02:34:33;;;;;;;6.85;1.95;;;11.40;75.20;;;;;;5063280;28;20036;-76
2023/11/15 02:36:59;;;;;;;8.73;2.35;;;11.40;75.20;;;;;;5061424;28;20500;-76
2023/11/15 02:39:25;;;;;;;10.38;2.35;;;11.40;75.20;;;;;;5070064;28;20032;-76
2023/11/15 02:41:51;;;;;;;12.43;2.15;;;11.40;75.20;;;;;;5058880;28;20029;-76
2023/11/15 02:44:17;;;;;;;9.85;2.70;;;11.40;75.30;;;;;;5055734;28;20487;-76
2023/11/15 02:46:43;;;;;;;8.38;1.90;;;11.30;75.10;;;;;;5068162;28;20052;-76
2023/11/15 02:49:09;;;;;;;9.27;2.70;;;11.30;75.10;;;;;;5066169;28;20020;-74
2023/11/15 02:51:35;;;;;;;7.95;1.85;;;11.30;75.20;;;;;;5063427;28;20036;-74
2023/11/15 02:54:04;;;;;;;7.90;2.15;;;11.30;75.20;;;;;;5063379;28;20068;-74
2023/11/15 02:56:31;;;;;;;10.05;2.05;;;11.30;75.20;;;;;;5062920;28;20430;-76
2023/11/15 02:58:58;;;;;;;9.15;2.28;;;11.30;75.20;;;;;;5062047;28;20544;-76
2023/11/15 03:01:24;;;;;;;7.35;2.30;;;11.30;75.20;;;;;;5059446;28;20068;-76
2023/11/15 03:03:51;;;;;;;5.35;1.67;;;11.30;75.20;;;;;;5065186;28;20514;-75
2023/11/15 03:06:18;;;;;;;7.32;2.15;;;11.30;75.30;;;;;;5065153;28;20044;-75
2023/11/15 03:08:44;;;;;;;6.43;1.80;;;11.20;75.10;;;;;;5059598;28;20028;-75
2023/11/15 03:11:11;;;;;;;8.30;1.70;;;11.20;75.10;;;;;;5061964;28;20020;-75
2023/11/15 03:13:37;;;;;;;8.68;1.92;;;11.20;75.10;;;;;;5064186;28;20042;-75
2023/11/15 03:16:04;;;;;;;7.63;2.28;;;11.20;75.20;;;;;;5058200;28;20040;-75
2023/11/15 03:18:31;;;;;;;8.35;1.95;;;11.20;75.20;;;;;;5064803;28;20051;-75
2023/11/15 03:20:58;;;;;;;7.25;1.63;;;11.20;75.20;;;;;;5064044;28;20107;-76
2023/11/15 03:23:24;;;;;;;8.30;2.15;;;11.20;75.20;;;;;;5063625;28;20059;-76
2023/11/15 03:25:50;;;;;;;5.53;1.63;;;11.10;75.10;;;;;;5059539;28;20507;-75
2023/11/15 03:28:17;;;;;;;7.60;2.17;;;11.10;75.10;;;;;;5063888;28;20034;-75
2023/11/15 03:30:43;;;;;;;5.30;1.95;;;11.10;75.10;;;;;;5058697;28;20029;-76
2023/11/15 03:33:09;;;;;;;6.20;2.17;;;11.10;75.10;;;;;;5065460;28;20480;-76
2023/11/15 03:35:35;;;;;;;7.05;1.95;;;11.10;75.10;;;;;;5062149;28;20031;-75
2023/11/15 03:38:02;;;;;;;12.27;2.90;;;11.10;75.20;;;;;;5064701;28;20021;-75
2023/11/15 03:40:28;;;;;;;7.13;1.83;;;11.10;75.20;;;;;;5061521;28;20400;-75
2023/11/15 03:42:54;;;;;;;5.45;1.85;;;11.10;75.20;;;;;;5054377;28;20036;-75
2023/11/15 03:45:20;;;;;;;8.10;2.38;;;11.10;75.20;;;;;;5055845;28;20140;-75
2023/11/15 03:47:46;;;;;;;8.27;1.77;;;11.10;75.20;;;;;;5065111;28;20029;-74
2023/11/15 03:50:12;;;;;;;6.82;2.40;;;11.10;75.20;;;;;;5065069;28;20510;-75
2023/11/15 03:52:39;;;;;;;6.38;1.92;;;11.10;75.20;;;;;;5045557;28;20116;-76
2023/11/15 03:55:05;;;;;;;7.18;1.90;;;11.10;75.20;;;;;;5060465;28;20039;-75
2023/11/15 03:57:33;;;;;;;4.57;2.03;;;11.10;75.20;;;;;;5062725;28;20055;-75
2023/11/15 03:59:59;;;;;;;4.22;1.85;;;11.10;75.20;;;;;;5060869;28;20036;-75
2023/11/15 04:02:26;;;;;;;9.98;1.73;;;11.10;75.20;;;;;;5064628;28;20032;-75
2023/11/15 04:04:53;;;;;;;8.32;2.08;;;11.10;75.30;;;;;;5064166;28;20131;-75
2023/11/15 04:07:20;;;;;;;11.32;2.20;;;11.10;75.30;;;;;;5063830;28;20036;-76
2023/11/15 04:09:49;;;;;;;8.85;1.63;;;11.10;75.20;;;;;;5055139;28;20024;-75
2023/11/15 04:12:16;;;;;;;8.65;1.80;;;11.10;75.30;;;;;;5060651;28;20064;-76
2023/11/15 04:14:42;;;;;;;6.18;2.38;;;11.10;75.20;;;;;;5063149;28;20033;-76
2023/11/15 04:17:09;;;;;;;6.10;1.50;;;11.10;75.20;;;;;;5057190;28;20526;-76
2023/11/15 04:19:35;;;;;;;6.72;1.95;;;11.10;75.20;;;;;;5065953;28;20459;-75
2023/11/15 04:22:01;;;;;;;8.25;2.42;;;11.00;75.10;;;;;;5095846;28;20056;-76
2023/11/15 04:24:28;;;;;;;5.75;1.45;;;11.10;75.30;;;;;;5059190;28;20071;-75
2023/11/15 04:26:54;;;;;;;5.45;1.90;;;11.00;75.10;;;;;;5063617;28;20040;-76
2023/11/15 04:29:21;;;;;;;7.13;1.67;;;11.00;75.10;;;;;;5063648;28;20051;-75
2023/11/15 04:31:47;;;;;;;9.48;2.10;;;11.00;75.10;;;;;;5059882;28;20043;-75
2023/11/15 04:34:15;;;;;;;5.35;2.03;;;11.00;75.10;;;;;;5068907;28;20033;-75
2023/11/15 04:36:41;;;;;;;4.57;1.40;;;11.00;75.10;;;;;;5067989;28;20104;-75
2023/11/15 04:39:08;;;;;;;5.47;1.67;;;11.00;75.10;;;;;;5068347;28;20597;-75
2023/11/15 04:41:34;;;;;;;7.05;1.58;;;11.00;75.10;;;;;;5065669;28;20405;-75
2023/11/15 04:44:04;;;;;;;6.20;1.70;;;11.00;75.10;;;;;;5058176;28;20040;-75
2023/11/15 04:46:34;;;;;;;8.32;2.65;;;11.00;75.10;;;;;;5063805;28;20503;-75
2023/11/15 04:49:01;;;;;;;5.82;1.48;;;10.90;74.90;;;;;;5068872;28;20519;-75
2023/11/15 04:51:27;;;;;;;9.45;1.50;;;10.90;74.90;;;;;;5060197;28;20013;-76
2023/11/15 04:53:53;;;;;;;11.73;2.85;;;10.90;74.90;;;;;;5067034;28;20037;-76
2023/11/15 04:56:19;;;;;;;4.57;1.33;;;10.90;74.90;;;;;;5058867;28;20059;-76
2023/11/15 04:58:45;;;;;;;7.40;1.90;;;10.90;75.00;;;;;;5066159;28;20028;-75
2023/11/15 05:01:12;;;;;;;5.90;1.60;;;10.90;75.00;;;;;;5062587;28;20391;-76
2023/11/15 05:03:38;;;;;;;8.23;1.88;;;10.90;75.00;;;;;;5065839;28;20107;-77
2023/11/15 05:06:04;;;;;;;9.10;1.77;;;10.80;74.90;;;;;;5065820;28;20132;-75
2023/11/15 05:08:30;;;;;;;5.53;2.75;;;10.80;74.90;;;;;;5067001;28;20036;-77
2023/11/15 05:10:56;;;;;;;8.80;2.50;;;10.80;74.90;;;;;;5060783;28;20035;-78
2023/11/15 05:13:22;;;;;;;7.28;1.40;;;10.80;74.90;;;;;;5067059;28;20035;-75
2023/11/15 05:15:48;;;;;;;3.45;1.80;;;10.80;74.90;;;;;;5066855;28;20051;-75
2023/11/15 05:18:15;;;;;;;4.80;1.55;;;10.70;74.80;;;;;;5059101;28;20033;-75
2023/11/15 05:20:41;;;;;;;7.78;2.15;;;10.70;74.80;;;;;;5068263;28;20036;-75
2023/11/15 05:23:07;;;;;;;8.85;2.25;;;10.70;74.80;;;;;;5065327;28;20028;-76
2023/11/15 05:25:33;;;;;;;7.03;1.23;;;10.70;74.90;;;;;;5064859;28;20047;-75
2023/11/15 05:27:59;;;;;;;5.47;1.60;;;10.70;74.90;;;;;;5066580;28;20115;-78
2023/11/15 05:30:25;;;;;;;5.85;1.35;;;10.70;74.90;;;;;;5062600;28;20035;-77
2023/11/15 05:32:50;;;;;;;6.20;1.60;;;10.70;74.90;;;;;;5060259;28;20051;-77
2023/11/15 05:35:16;;;;;;;6.32;1.70;;;10.70;74.90;;;;;;5067483;28;20108;-78
2023/11/15 05:37:42;;;;;;;5.88;1.83;;;10.70;74.90;;;;;;5067820;28;20033;-77
2023/11/15 05:40:12;;;;;;;7.03;2.15;;;10.70;74.90;;;;;;5066168;28;20052;-76
2023/11/15 05:42:38;;;;;;;11.48;2.42;;;10.70;75.00;;;;;;5058294;28;20024;-77
2023/11/15 05:45:05;;;;;;;9.07;2.05;;;10.70;75.00;;;;;;5062331;28;20040;-77
2023/11/15 05:47:31;;;;;;;7.93;2.08;;;10.60;74.80;;;;;;5064516;28;20361;-77
2023/11/15 05:49:57;;;;;;;5.90;1.92;;;10.60;74.80;;;;;;5061102;28;20047;-77
2023/11/15 05:52:23;;;;;;;7.65;2.15;;;10.60;74.90;;;;;;5059928;28;20038;-77
2023/11/15 05:54:49;;;;;;;6.60;1.85;;;10.60;74.80;;;;;;5061893;28;20078;-77
2023/11/15 05:57:15;;;;;;;5.60;1.83;;;10.60;74.90;;;;;;5061153;28;20399;-77
2023/11/15 05:59:40;;;;;;;8.30;1.83;;;10.60;74.90;;;;;;5060892;28;20033;-76
2023/11/15 06:02:06;;;;;;;6.47;1.83;;;10.60;74.90;;;;;;5061743;28;20644;-76
2023/11/15 06:04:33;;;;;;;7.15;1.52;;;10.60;74.90;;;;;;5063125;28;20037;-77
2023/11/15 06:07:01;;;;;;;7.60;1.80;;;10.60;74.90;;;;;;5043247;28;20241;-74
2023/11/15 06:09:27;;;;;;;6.70;1.83;;;10.60;74.90;;;;;;5062390;28;20111;-74
2023/11/15 06:11:54;;;;;;;9.07;2.05;;;10.50;74.80;;;;;;5055475;28;20083;-73
2023/11/15 06:14:20;;;;;;;8.15;1.90;;;10.50;74.80;;;;;;5057946;28;20036;-74
2023/11/15 06:16:46;;;;;;;11.52;3.75;;;10.50;74.80;;;;;;5059434;28;20028;-73
2023/11/15 06:19:12;;;;;;;11.27;2.90;;;10.50;74.80;;;;;;5065077;28;20066;-72
2023/11/15 06:21:44;;;;;;;9.70;2.55;;;10.50;74.80;;;;;;5065349;28;20475;-73
2023/11/15 06:24:13;;;;;;;9.80;2.28;;;10.50;74.90;;;;;;5055996;28;20025;-73
2023/11/15 06:26:39;;;;;;;9.00;2.80;;;10.50;74.80;;;;;;5061438;28;20036;-73
2023/11/15 06:29:07;;;;;;;5.45;2.25;;;10.50;74.80;;;;;;5057974;28;20028;-72
2023/11/15 06:31:36;;;;;;;11.35;1.95;;;10.50;74.90;;;;;;5054354;28;20033;-74
2023/11/15 06:34:05;;;;;;;7.68;2.65;;;10.50;74.90;;;;;;5052553;28;20239;-73
2023/11/15 06:36:36;;;;;;;6.57;2.00;;;10.50;74.90;;;;;;5058412;28;20119;-75
2023/11/15 06:39:08;;;;;;;16.55;2.17;;;10.50;74.90;;;;;;5052924;28;20564;-75
2023/11/15 06:41:38;;;;;;;6.22;1.65;;;10.50;75.00;;;;;;5036805;28;20036;-75
2023/11/15 06:44:06;;;;;;;9.77;2.90;;;10.50;75.30;;;;;;5058839;28;20052;-75
2023/11/15 06:46:34;;;;;;;10.63;2.10;;;10.60;75.70;;;;;;5055894;28;20519;-75
2023/11/15 06:49:00;;;;;;;10.07;2.20;;;10.60;75.80;;;;;;5063442;28;20037;-73
2023/11/15 06:51:26;;;;;;;31.95;5.97;;;10.70;76.10;;;;;;5058830;28;20338;-75
2023/11/15 06:53:56;;;;;;;21.15;5.90;;;10.70;76.30;;;;;;5065005;28;20036;-75
2023/11/15 06:56:22;;;;;;;39.15;8.88;;;10.80;76.60;;;;;;5060616;28;20557;-75
2023/11/15 06:58:48;;;;;;;29.52;6.07;;;10.80;76.80;;;;;;5063494;28;20020;-76
2023/11/15 07:01:14;;;;;;;26.95;5.80;;;10.90;77.10;;;;;;5059077;28;20032;-76
2023/11/15 07:03:43;;;;;;;20.02;4.63;;;10.90;77.30;;;;;;5067125;28;20268;-77
2023/11/15 07:06:09;;;;;;;18.05;4.38;;;10.90;77.50;;;;;;5052711;28;20040;-77
2023/11/15 07:08:36;;;;;;;16.83;4.63;;;10.90;77.60;;;;;;5060001;28;20458;-78
2023/11/15 07:11:02;;;;;;;24.02;4.20;;;11.00;77.90;;;;;;5046842;28;20048;-77
2023/11/15 07:13:31;;;;;;;17.77;4.30;;;11.00;78.10;;;;;;5056588;28;20040;-77
2023/11/15 07:16:01;;;;;;;13.02;3.22;;;11.10;78.40;;;;;;5061520;28;20440;-77
2023/11/15 07:18:33;;;;;;;15.23;3.90;;;11.10;78.50;;;;;;5062770;28;20028;-77
2023/11/15 07:20:59;;;;;;;15.57;3.17;;;11.10;78.70;;;;;;5040983;28;20086;-76
2023/11/15 07:23:28;;;;;;;15.13;4.38;;;11.10;78.70;;;;;;5054484;28;20032;-76
2023/11/15 07:25:55;;;;;;;16.02;3.10;;;11.20;79.00;;;;;;5075788;28;20053;-78
2023/11/15 07:28:23;;;;;;;11.48;3.28;;;11.20;79.00;;;;;;5061784;28;20047;-77
2023/11/15 07:30:50;;;;;;;10.57;2.80;;;11.20;79.10;;;;;;5057994;28;20513;-77
2023/11/15 07:33:19;;;;;;;14.15;3.83;;;11.20;79.10;;;;;;5054001;28;20310;-79
2023/11/15 07:35:47;;;;;;;11.07;2.83;;;11.20;79.20;;;;;;5054285;28;20065;-78
2023/11/15 07:38:13;;;;;;;11.07;3.25;;;11.20;79.20;;;;;;5061273;28;20357;-78
2023/11/15 07:40:41;;;;;;;11.63;2.78;;;11.30;79.40;;;;;;5051975;28;20053;-78
2023/11/15 07:43:08;;;;;;;12.52;2.67;;;11.30;79.40;;;;;;5052641;28;20070;-79
2023/11/15 07:45:35;;;;;;;11.88;2.80;;;11.30;79.40;;;;;;5062694;28;20133;-78
2023/11/15 07:48:04;;;;;;;8.93;2.65;;;11.30;79.40;;;;;;5052880;28;20025;-78
2023/11/15 07:50:32;;;;;;;10.15;2.20;;;11.30;79.40;;;;;;5062530;28;20033;-79
2023/11/15 07:52:58;;;;;;;10.30;2.55;;;11.30;79.40;;;;;;5057171;28;20542;-78
2023/11/15 07:55:25;;;;;;;12.68;3.17;;;11.40;79.60;;;;;;5058433;28;20510;-78
2023/11/15 07:57:51;;;;;;;10.25;2.63;;;11.30;79.40;;;;;;5058726;28;20041;-79
2023/11/15 08:00:22;;;;;;;9.25;2.55;;;11.40;79.60;;;;;;5055148;28;20016;-78
2023/11/15 08:02:53;;;;;;;13.93;4.50;;;11.40;79.60;;;;;;5055923;28;20535;-78
2023/11/15 08:05:20;;;;;;;7.75;1.73;;;11.50;79.80;;;;;;5060704;28;20040;-79
2023/11/15 08:07:47;;;;;;;7.03;2.17;;;11.40;79.60;;;;;;5057099;28;20048;-79
2023/11/15 08:10:14;;;;;;;7.70;1.80;;;11.50;79.80;;;;;;5053582;28;20036;-78
2023/11/15 08:12:44;;;;;;;12.07;2.55;;;11.50;79.80;;;;;;5059837;28;20044;-79
2023/11/15 08:15:15;;;;;;;14.75;2.53;;;11.50;79.80;;;;;;5055435;28;20063;-78
2023/11/15 08:17:42;;;;;;;9.50;2.33;;;11.50;79.70;;;;;;5064494;28;20394;-78
2023/11/15 08:20:09;;;;;;;12.32;2.80;;;11.60;79.90;;;;;;5056489;28;20032;-80
2023/11/15 08:22:39;;;;;;;11.88;2.58;;;11.60;79.90;;;;;;5060929;28;20064;-78
2023/11/15 08:25:09;;;;;;;11.15;3.03;;;11.60;79.80;;;;;;5058791;28;20044;-77
2023/11/15 08:27:40;;;;;;;8.73;2.28;;;11.70;80.00;;;;;;5056322;28;20124;-78
2023/11/15 08:30:17;;;;;;;11.70;2.17;;;11.70;80.00;;;;;;5045342;28;20037;-79
2023/11/15 08:32:44;;;;;;;8.65;2.30;;;11.70;79.90;;;;;;5042826;28;20063;-78
2023/11/15 08:35:11;;;;;;;12.88;3.75;;;11.70;79.80;;;;;;5053899;28;20036;-78
2023/11/15 08:37:38;;;;;;;12.07;3.72;;;11.70;79.80;;;;;;5060216;28;20036;-77
2023/11/15 08:40:05;;;;;;;9.85;3.35;;;11.80;79.90;;;;;;5056102;28;20515;-77
2023/11/15 08:42:32;;;;;;;9.88;2.60;;;11.80;79.90;;;;;;5051787;28;20059;-78
2023/11/15 08:44:59;;;;;;;9.45;2.83;;;11.90;80.10;;;;;;5054203;28;20522;-77
2023/11/15 08:47:25;;;;;;;11.50;3.17;;;11.90;80.00;;;;;;5054856;28;20043;-77
2023/11/15 08:49:53;;;;;;;14.10;4.03;;;11.90;79.90;;;;;;5043551;28;20086;-77
2023/11/15 08:52:20;;;;;;;10.63;2.72;;;11.90;79.90;;;;;;5058608;28;20036;-77
2023/11/15 08:54:46;;;;;;;9.02;2.53;;;11.90;79.80;;;;;;5056117;28;20143;-77
2023/11/15 08:57:16;;;;;;;8.35;2.70;;;12.00;80.00;;;;;;5059871;28;20811;-78
2023/11/15 08:59:44;;;;;;;7.90;2.40;;;12.00;80.00;;;;;;5055767;28;20110;-78
2023/11/15 09:02:11;;;;;;;9.23;2.42;;;12.00;80.00;;;;;;5056239;28;20521;-78
2023/11/15 09:04:38;;;;;;;8.95;2.45;;;12.10;80.10;;;;;;5054523;28;20029;-77
2023/11/15 09:07:05;;;;;;;4.78;1.95;;;12.10;80.00;;;;;;5055642;28;20098;-77
2023/11/15 09:09:38;;;;;;;11.27;2.38;;;12.10;80.00;;;;;;5053653;28;20037;-77
2023/11/15 09:12:05;;;;;;;11.50;2.53;;;12.10;79.90;;;;;;5053207;28;20412;-77
2023/11/15 09:14:33;;;;;;;7.93;3.08;;;12.20;80.00;;;;;;5056595;28;20051;-77
2023/11/15 09:17:00;;;;;;;8.52;2.40;;;12.20;80.00;;;;;;5057522;28;20112;-77
2023/11/15 09:19:28;;;;;;;7.97;2.38;;;12.30;80.10;;;;;;5062118;28;20273;-77
2023/11/15 09:21:55;;;;;;;9.30;3.22;;;12.30;80.10;;;;;;5062739;28;20067;-78
2023/11/15 09:24:26;;;;;;;10.95;2.97;;;12.30;80.00;;;;;;5059377;28;20120;-78
2023/11/15 09:26:52;;;;;;;9.90;3.15;;;12.40;80.20;;;;;;5048255;28;20044;-77
2023/11/15 09:29:19;;;;;;;9.50;3.20;;;12.40;80.10;;;;;;5063813;28;20357;-77
2023/11/15 09:31:45;;;;;;;8.63;2.63;;;12.40;80.00;;;;;;5061299;28;20115;-79
2023/11/15 09:34:11;;;;;;;8.88;3.00;;;12.50;80.10;;;;;;5062471;28;20111;-76
2023/11/15 09:36:37;;;;;;;13.57;4.57;;;12.50;80.00;;;;;;5059521;28;20431;-77
2023/11/15 09:39:09;;;;;;;9.40;2.92;;;12.50;80.00;;;;;;5061421;28;20032;-77
2023/11/15 09:41:36;;;;;;;9.85;2.38;;;12.50;79.90;;;;;;5057969;28;20040;-77
2023/11/15 09:44:09;;;;;;;9.23;2.50;;;12.60;80.00;;;;;;5059569;28;20238;-77
2023/11/15 09:46:40;;;;;;;7.68;2.30;;;12.60;79.90;;;;;;5054723;28;20032;-77
2023/11/15 09:49:06;;;;;;;10.30;2.85;;;12.60;79.70;;;;;;5061425;28;20122;-77
2023/11/15 09:51:34;;;;;;;7.90;2.95;;;12.60;79.60;;;;;;5058341;28;20166;-77
2023/11/15 09:54:06;;;;;;;6.25;2.53;;;12.50;79.30;;;;;;5063787;28;20475;-77
2023/11/15 09:56:34;;;;;;;12.07;3.30;;;12.50;79.20;;;;;;5057791;28;20036;-77
2023/11/15 09:59:00;;;;;;;6.40;2.80;;;12.50;79.10;;;;;;5058603;28;20068;-77
2023/11/15 10:01:26;;;;;;;7.63;2.00;;;12.50;79.00;;;;;;5058665;28;20056;-77
2023/11/15 10:03:53;;;;;;;11.30;3.42;;;12.50;78.90;;;;;;5069663;28;20495;-77
2023/11/15 10:06:19;;;;;;;9.57;3.13;;;12.50;78.70;;;;;;5063021;28;20425;-77
2023/11/15 10:08:53;;;;;;;8.75;2.58;;;12.50;78.60;;;;;;5061963;28;20089;-77
2023/11/15 10:11:20;;;;;;;7.82;2.28;;;12.50;78.40;;;;;;5061603;28;20036;-77
2023/11/15 10:13:51;;;;;;;10.27;2.67;;;12.40;78.10;;;;;;5040851;28;20488;-77
2023/11/15 10:16:30;;;;;;;7.35;2.20;;;12.50;78.20;;;;;;5064047;28;20035;-78
2023/11/15 10:18:58;;;;;;;9.38;2.65;;;12.40;77.80;;;;;;5059046;28;20033;-77
2023/11/15 10:21:24;;;;;;;8.30;3.22;;;12.40;77.70;;;;;;5060889;28;20226;-77
2023/11/15 10:24:09;;;;;;;10.52;2.45;;;12.40;77.60;;;;;;5060090;28;20033;-76
2023/11/15 10:26:39;;;;;;;11.75;2.78;;;12.40;78.00;;;;;;5060146;28;20101;-77
2023/11/15 10:29:12;;;;;;;9.13;2.30;;;12.40;77.30;;;;;;5072780;28;20040;-77
2023/11/15 10:31:52;;;;;;;9.30;2.17;;;12.40;77.20;;;;;;5053802;28;20048;-77
2023/11/15 10:34:29;;;;;;;9.80;2.60;;;12.40;77.10;;;;;;5058178;28;20058;-77
2023/11/15 10:37:10;;;;;;;6.90;1.80;;;12.40;77.00;;;;;;5059720;28;20511;-77
2023/11/15 10:39:43;;;;;;;9.70;2.33;;;12.40;76.80;;;;;;5039988;28;20242;-76
2023/11/15 10:42:12;;;;;;;13.50;3.17;;;12.40;76.70;;;;;;5055324;28;20013;-75
2023/11/15 10:44:40;;;;;;;6.15;2.28;;;12.40;76.60;;;;;;5057431;28;20047;-76
2023/11/15 10:47:12;;;;;;;8.85;2.33;;;12.40;76.50;;;;;;5061156;28;20040;-77
2023/11/15 10:49:43;;;;;;;10.75;2.00;;;12.40;76.40;;;;;;5056457;28;20064;-76
2023/11/15 10:52:11;;;;;;;9.05;1.65;;;12.40;76.20;;;;;;5057265;28;20033;-77
2023/11/15 10:54:38;;;;;;;10.77;2.13;;;12.50;76.40;;;;;;5059741;28;20060;-78
2023/11/15 10:57:07;;;;;;;5.75;2.05;;;12.50;76.20;;;;;;5036303;28;20683;-75
2023/11/15 10:59:41;;;;;;;5.07;1.60;;;12.50;76.10;;;;;;5057456;28;20074;-76
2023/11/15 11:02:09;;;;;;;7.15;2.58;;;12.50;75.90;;;;;;5054575;28;20032;-76
2023/11/15 11:04:38;;;;;;;9.43;2.28;;;12.50;75.80;;;;;;5056084;28;20039;-76
2023/11/15 11:07:48;;;;;;;6.95;2.17;;;12.50;75.60;;;;;;5056860;28;20060;-75
2023/11/15 11:10:26;;;;;;;9.40;2.22;;;12.50;75.40;;;;;;5033123;28;20374;-76
2023/11/15 11:12:56;;;;;;;8.07;2.20;;;12.60;75.50;;;;;;5055777;28;20032;-77
2023/11/15 11:15:25;;;;;;;7.07;2.65;;;12.60;75.40;;;;;;5055479;28;20113;-77
2023/11/15 11:18:11;;;;;;;7.85;1.80;;;12.60;75.30;;;;;;5053410;28;20037;-76
2023/11/15 11:20:40;;;;;;;5.55;1.60;;;12.60;75.30;;;;;;5052455;28;20395;-75
2023/11/15 11:23:11;;;;;;;5.97;1.95;;;12.70;75.50;;;;;;5044378;28;20155;-75
2023/11/15 11:25:41;;;;;;;7.20;2.13;;;12.70;75.50;;;;;;5056591;28;20052;-75
2023/11/15 11:28:12;;;;;;;6.65;1.70;;;12.70;75.40;;;;;;5056802;28;20666;-76
2023/11/15 11:30:38;;;;;;;7.75;2.95;;;12.70;75.30;;;;;;5033414;28;20057;-76
2023/11/15 11:33:15;;;;;;;9.75;2.60;;;12.80;75.30;;;;;;5057948;28;20404;-75
2023/11/15 11:35:48;;;;;;;8.05;2.70;;;12.80;75.20;;;;;;5055496;28;20426;-76
2023/11/15 11:38:41;;;;;;;7.10;2.28;;;12.80;75.60;;;;;;5057058;28;20039;-75
2023/11/15 11:41:13;;;;;;;6.20;2.03;;;12.80;74.80;;;;;;5049455;28;20052;-76
2023/11/15 11:43:41;;;;;;;9.40;1.73;;;12.90;75.00;;;;;;5049202;28;20036;-76
2023/11/15 11:46:13;;;;;;;5.53;1.73;;;12.90;74.80;;;;;;5061862;28;20686;-76
2023/11/15 11:48:40;;;;;;;8.05;1.85;;;12.90;74.60;;;;;;5051740;28;20036;-76
2023/11/15 11:51:14;;;;;;;4.75;1.95;;;12.90;74.60;;;;;;5047628;28;20127;-76
2023/11/15 11:53:46;;;;;;;4.65;1.75;;;12.90;74.40;;;;;;5057017;28;20613;-76
2023/11/15 11:56:16;;;;;;;5.50;1.65;;;12.90;74.40;;;;;;5052553;28;20032;-76
2023/11/15 11:58:43;;;;;;;8.68;1.95;;;12.90;74.20;;;;;;5054601;28;20041;-77
2023/11/15 12:01:12;;;;;;;5.60;1.98;;;12.90;74.10;;;;;;5050568;28;20047;-78
2023/11/15 12:03:46;;;;;;;6.13;1.85;;;12.90;74.00;;;;;;5055940;28;20028;-79
2023/11/15 12:06:13;;;;;;;6.00;1.20;;;12.90;73.90;;;;;;5054886;28;20170;-76
2023/11/15 12:08:46;;;;;;;4.38;1.30;;;12.90;73.80;;;;;;5057788;28;20040;-77
2023/11/15 12:11:18;;;;;;;6.50;2.78;;;12.90;73.60;;;;;;5053323;28;20028;-78
2023/11/15 12:13:49;;;;;;;5.20;1.50;;;12.90;73.50;;;;;;5068119;28;20119;-75
2023/11/15 12:16:27;;;;;;;4.43;1.48;;;12.90;73.40;;;;;;5054939;28;20040;-77
2023/11/15 12:18:58;;;;;;;4.40;1.42;;;12.90;73.40;;;;;;5057936;28;20036;-76
2023/11/15 12:21:25;;;;;;;4.95;1.50;;;12.90;73.30;;;;;;5054183;28;20036;-76
2023/11/15 12:23:52;;;;;;;6.20;1.67;;;12.80;73.00;;;;;;5065550;28;20036;-76
2023/11/15 12:26:18;;;;;;;4.68;1.20;;;12.90;73.10;;;;;;5051201;28;20032;-76
2023/11/15 12:28:45;;;;;;;4.15;1.60;;;12.90;73.00;;;;;;5060055;28;20119;-76
2023/11/15 12:31:13;;;;;;;7.72;1.85;;;12.90;73.00;;;;;;5057259;28;20036;-77
2023/11/15 12:33:39;;;;;;;5.28;1.50;;;12.90;72.80;;;;;;5061597;28;20492;-78
2023/11/15 12:36:07;;;;;;;3.97;1.45;;;12.90;72.70;;;;;;5051394;28;20399;-78
2023/11/15 12:38:33;;;;;;;7.80;2.05;;;13.00;72.70;;;;;;5053159;28;20522;-79
2023/11/15 12:41:04;;;;;;;7.35;1.42;;;13.00;72.60;;;;;;5038564;28;20527;-78
2023/11/15 12:43:31;;;;;;;8.07;2.63;;;13.00;72.40;;;;;;5048073;28;20151;-79
2023/11/15 12:45:59;;;;;;;6.43;1.40;;;13.10;72.50;;;;;;5061800;28;20032;-78
2023/11/15 12:48:25;;;;;;;6.93;2.17;;;13.10;72.40;;;;;;5051988;28;20032;-78
2023/11/15 12:51:02;;;;;;;3.95;1.13;;;13.10;72.30;;;;;;5050676;28;20200;-78